sensor_id;sensor_type;location;lat;lon;timestamp;temperature;humidity
25906;DHT22;13713;52.552;13.204;2024-01-15T00:01:45;9.10;82.60
25906;DHT22;13713;52.552;13.204;2024-01-15T00:04:11;9.10;82.60
25906;DHT22;13713;52.552;13.204;2024-01-15T00:06:37;9.10;82.50
25906;DHT22;13713;52.552;13.204;2024-01-15T00:09:02;9.10;82.50
25906;DHT22;13713;52.552;13.204;2024-01-15T00:11:28;9.10;82.40
25906;DHT22;13713;52.552;13.204;2024-01-15T00:13:54;9.10;82.50
25906;DHT22;13713;52.552;13.204;2024-01-15T00:16:19;9.10;82.40
25906;DHT22;13713;52.552;13.204;2024-01-15T00:18:45;9.10;82.40
25906;DHT22;13713;52.552;13.204;2024-01-15T00:21:10;9.10;82.30
25906;DHT22;13713;52.552;13.204;2024-01-15T00:23:36;9.10;82.30
25906;DHT22;13713;52.552;13.204;2024-01-15T00:26:02;9.10;82.30
25906;DHT22;13713;52.552;13.204;2024-01-15T00:28:27;9.10;82.30
25906;DHT22;13713;52.552;13.204;2024-01-15T00:30:53;9.10;82.30
25906;DHT22;13713;52.552;13.204;2024-01-15T00:33:19;9.10;82.30
25906;DHT22;13713;52.552;13.204;2024-01-15T00:35:44;9.10;82.30
25906;DHT22;13713;52.552;13.204;2024-01-15T00:38:10;9.10;82.20
25906;DHT22;13713;52.552;13.204;2024-01-15T00:40:35;9.10;82.20
25906;DHT22;13713;52.552;13.204;2024-01-15T00:43:01;9.10;82.20
25906;DHT22;13713;52.552;13.204;2024-01-15T00:45:28;9.10;82.20
25906;DHT22;13713;52.552;13.204;2024-01-15T00:47:53;9.10;82.10
25906;DHT22;13713;52.552;13.204;2024-01-15T00:50:21;9.10;82.20
25906;DHT22;13713;52.552;13.204;2024-01-15T00:52:47;9.10;82.20
25906;DHT22;13713;52.552;13.204;2024-01-15T00:55:13;9.10;82.20
25906;DHT22;13713;52.552;13.204;2024-01-15T00:57:39;9.10;82.00
25906;DHT22;13713;52.552;13.204;2024-01-15T01:00:05;9.10;82.10
25906;DHT22;13713;52.552;13.204;2024-01-15T01:02:32;9.10;81.90
25906;DHT22;13713;52.552;13.204;2024-01-15T01:04:57;9.10;81.90
25906;DHT22;13713;52.552;13.204;2024-01-15T01:07:23;9.10;81.90
25906;DHT22;13713;52.552;13.204;2024-01-15T01:09:48;9.10;82.00
25906;DHT22;13713;52.552;13.204;2024-01-15T01:12:14;9.10;82.00
25906;DHT22;13713;52.552;13.204;2024-01-15T01:14:40;9.10;82.00
25906;DHT22;13713;52.552;13.204;2024-01-15T01:17:06;9.10;82.00
25906;DHT22;13713;52.552;13.204;2024-01-15T01:19:31;9.10;81.90
25906;DHT22;13713;52.552;13.204;2024-01-15T01:21:57;9.10;82.10
25906;DHT22;13713;52.552;13.204;2024-01-15T01:24:23;9.20;82.00
25906;DHT22;13713;52.552;13.204;2024-01-15T01:26:48;9.10;81.90
25906;DHT22;13713;52.552;13.204;2024-01-15T01:29:14;9.10;82.00
25906;DHT22;13713;52.552;13.204;2024-01-15T01:31:46;9.10;82.00
25906;DHT22;13713;52.552;13.204;2024-01-15T01:34:15;9.10;81.90
25906;DHT22;13713;52.552;13.204;2024-01-15T01:36:42;9.20;82.30
25906;DHT22;13713;52.552;13.204;2024-01-15T01:39:07;9.10;81.80
25906;DHT22;13713;52.552;13.204;2024-01-15T01:41:33;9.10;81.80
25906;DHT22;13713;52.552;13.204;2024-01-15T01:43:59;9.10;81.80
25906;DHT22;13713;52.552;13.204;2024-01-15T01:46:27;9.10;81.70
25906;DHT22;13713;52.552;13.204;2024-01-15T01:48:54;9.20;81.90
25906;DHT22;13713;52.552;13.204;2024-01-15T01:51:21;9.10;81.80
25906;DHT22;13713;52.552;13.204;2024-01-15T01:53:49;9.10;81.80
25906;DHT22;13713;52.552;13.204;2024-01-15T01:56:15;9.10;81.80
25906;DHT22;13713;52.552;13.204;2024-01-15T01:58:42;9.10;81.70
25906;DHT22;13713;52.552;13.204;2024-01-15T02:01:08;9.10;81.80
25906;DHT22;13713;52.552;13.204;2024-01-15T02:03:34;9.10;81.70
25906;DHT22;13713;52.552;13.204;2024-01-15T02:06:00;9.20;81.80
25906;DHT22;13713;52.552;13.204;2024-01-15T02:08:26;9.10;81.80
25906;DHT22;13713;52.552;13.204;2024-01-15T02:10:52;9.10;81.80
25906;DHT22;13713;52.552;13.204;2024-01-15T02:13:18;9.10;81.80
25906;DHT22;13713;52.552;13.204;2024-01-15T02:15:44;9.10;81.70
25906;DHT22;13713;52.552;13.204;2024-01-15T02:18:10;9.10;81.70
25906;DHT22;13713;52.552;13.204;2024-01-15T02:20:36;9.10;81.70
25906;DHT22;13713;52.552;13.204;2024-01-15T02:23:09;9.20;81.80
25906;DHT22;13713;52.552;13.204;2024-01-15T02:25:45;9.10;81.70
25906;DHT22;13713;52.552;13.204;2024-01-15T02:28:13;9.10;81.70
25906;DHT22;13713;52.552;13.204;2024-01-15T02:30:40;9.10;81.70
25906;DHT22;13713;52.552;13.204;2024-01-15T02:33:07;9.10;81.70
25906;DHT22;13713;52.552;13.204;2024-01-15T02:35:34;9.10;81.70
25906;DHT22;13713;52.552;13.204;2024-01-15T02:38:02;9.20;81.80
25906;DHT22;13713;52.552;13.204;2024-01-15T02:40:28;9.10;81.70
25906;DHT22;13713;52.552;13.204;2024-01-15T02:42:54;9.20;81.70
25906;DHT22;13713;52.552;13.204;2024-01-15T02:45:20;9.20;81.60
25906;DHT22;13713;52.552;13.204;2024-01-15T02:47:46;9.10;81.70
25906;DHT22;13713;52.552;13.204;2024-01-15T02:50:12;9.10;81.60
25906;DHT22;13713;52.552;13.204;2024-01-15T02:52:37;9.10;81.50
25906;DHT22;13713;52.552;13.204;2024-01-15T02:55:03;9.20;81.60
25906;DHT22;13713;52.552;13.204;2024-01-15T02:57:29;9.10;81.60
25906;DHT22;13713;52.552;13.204;2024-01-15T02:59:54;9.20;81.60
25906;DHT22;13713;52.552;13.204;2024-01-15T03:02:20;9.10;81.60
25906;DHT22;13713;52.552;13.204;2024-01-15T03:04:46;9.20;82.40
25906;DHT22;13713;52.552;13.204;2024-01-15T03:07:12;9.10;81.60
25906;DHT22;13713;52.552;13.204;2024-01-15T03:09:37;9.10;81.50
25906;DHT22;13713;52.552;13.204;2024-01-15T03:12:04;9.20;81.60
25906;DHT22;13713;52.552;13.204;2024-01-15T03:14:29;9.10;81.50
25906;DHT22;13713;52.552;13.204;2024-01-15T03:16:55;9.10;81.50
25906;DHT22;13713;52.552;13.204;2024-01-15T03:19:21;9.10;81.50
25906;DHT22;13713;52.552;13.204;2024-01-15T03:21:47;9.20;81.50
25906;DHT22;13713;52.552;13.204;2024-01-15T03:24:12;9.10;81.40
25906;DHT22;13713;52.552;13.204;2024-01-15T03:26:38;9.20;81.40
25906;DHT22;13713;52.552;13.204;2024-01-15T03:29:04;9.10;82.20
25906;DHT22;13713;52.552;13.204;2024-01-15T03:31:30;9.10;81.40
25906;DHT22;13713;52.552;13.204;2024-01-15T03:33:56;9.10;81.40
25906;DHT22;13713;52.552;13.204;2024-01-15T03:36:22;9.10;81.50
25906;DHT22;13713;52.552;13.204;2024-01-15T03:38:47;9.10;81.40
25906;DHT22;13713;52.552;13.204;2024-01-15T03:41:13;9.10;81.40
25906;DHT22;13713;52.552;13.204;2024-01-15T03:43:39;9.10;81.40
25906;DHT22;13713;52.552;13.204;2024-01-15T03:46:05;9.10;81.30
25906;DHT22;13713;52.552;13.204;2024-01-15T03:48:31;9.20;81.40
25906;DHT22;13713;52.552;13.204;2024-01-15T03:50:57;9.10;81.30
25906;DHT22;13713;52.552;13.204;2024-01-15T03:53:22;9.20;81.00
25906;DHT22;13713;52.552;13.204;2024-01-15T03:55:49;9.20;80.80
25906;DHT22;13713;52.552;13.204;2024-01-15T03:58:15;9.30;80.40
25906;DHT22;13713;52.552;13.204;2024-01-15T04:00:41;9.40;80.20
25906;DHT22;13713;52.552;13.204;2024-01-15T04:03:07;9.40;80.40
25906;DHT22;13713;52.552;13.204;2024-01-15T04:05:32;9.50;80.30
25906;DHT22;13713;52.552;13.204;2024-01-15T04:07:58;9.50;80.20
25906;DHT22;13713;52.552;13.204;2024-01-15T04:10:24;9.50;80.00
25906;DHT22;13713;52.552;13.204;2024-01-15T04:12:49;9.60;80.00
25906;DHT22;13713;52.552;13.204;2024-01-15T04:15:15;9.60;79.90
25906;DHT22;13713;52.552;13.204;2024-01-15T04:17:41;9.70;79.70
25906;DHT22;13713;52.552;13.204;2024-01-15T04:20:07;9.70;79.70
25906;DHT22;13713;52.552;13.204;2024-01-15T04:22:34;9.80;79.60
25906;DHT22;13713;52.552;13.204;2024-01-15T04:25:01;9.80;79.40
25906;DHT22;13713;52.552;13.204;2024-01-15T04:27:26;9.80;79.00
25906;DHT22;13713;52.552;13.204;2024-01-15T04:29:52;9.90;78.80
25906;DHT22;13713;52.552;13.204;2024-01-15T04:32:18;9.90;78.70
25906;DHT22;13713;52.552;13.204;2024-01-15T04:34:44;9.90;78.70
25906;DHT22;13713;52.552;13.204;2024-01-15T04:37:10;9.90;78.60
25906;DHT22;13713;52.552;13.204;2024-01-15T04:39:36;10.00;78.50
25906;DHT22;13713;52.552;13.204;2024-01-15T04:42:02;10.00;78.50
25906;DHT22;13713;52.552;13.204;2024-01-15T04:44:28;10.10;78.50
25906;DHT22;13713;52.552;13.204;2024-01-15T04:46:54;10.10;78.40
25906;DHT22;13713;52.552;13.204;2024-01-15T04:49:20;10.20;78.30
25906;DHT22;13713;52.552;13.204;2024-01-15T04:51:45;10.10;78.10
25906;DHT22;13713;52.552;13.204;2024-01-15T04:54:11;10.10;77.80
25906;DHT22;13713;52.552;13.204;2024-01-15T04:56:37;10.20;77.90
25906;DHT22;13713;52.552;13.204;2024-01-15T04:59:03;10.20;77.60
25906;DHT22;13713;52.552;13.204;2024-01-15T05:01:32;10.20;77.30
25906;DHT22;13713;52.552;13.204;2024-01-15T05:03:58;10.30;77.30
25906;DHT22;13713;52.552;13.204;2024-01-15T05:06:24;10.30;77.10
25906;DHT22;13713;52.552;13.204;2024-01-15T05:08:50;10.30;77.10
25906;DHT22;13713;52.552;13.204;2024-01-15T05:11:16;10.30;77.00
25906;DHT22;13713;52.552;13.204;2024-01-15T05:13:41;10.30;76.90
25906;DHT22;13713;52.552;13.204;2024-01-15T05:16:07;10.30;77.00
25906;DHT22;13713;52.552;13.204;2024-01-15T05:18:33;10.40;77.50
25906;DHT22;13713;52.552;13.204;2024-01-15T05:20:59;10.40;76.60
25906;DHT22;13713;52.552;13.204;2024-01-15T05:23:24;10.40;76.50
25906;DHT22;13713;52.552;13.204;2024-01-15T05:25:50;10.40;76.40
25906;DHT22;13713;52.552;13.204;2024-01-15T05:28:16;10.40;76.10
25906;DHT22;13713;52.552;13.204;2024-01-15T05:30:41;10.50;76.30
25906;DHT22;13713;52.552;13.204;2024-01-15T05:33:07;10.50;76.40
25906;DHT22;13713;52.552;13.204;2024-01-15T05:35:34;10.50;76.10
25906;DHT22;13713;52.552;13.204;2024-01-15T05:37:59;10.50;76.20
25906;DHT22;13713;52.552;13.204;2024-01-15T05:40:25;10.50;76.10
25906;DHT22;13713;52.552;13.204;2024-01-15T05:42:51;10.60;75.90
25906;DHT22;13713;52.552;13.204;2024-01-15T05:45:16;10.60;76.00
25906;DHT22;13713;52.552;13.204;2024-01-15T05:47:42;10.60;75.80
25906;DHT22;13713;52.552;13.204;2024-01-15T05:50:09;10.60;75.80
25906;DHT22;13713;52.552;13.204;2024-01-15T05:52:35;10.70;75.50
25906;DHT22;13713;52.552;13.204;2024-01-15T05:55:01;10.70;75.50
25906;DHT22;13713;52.552;13.204;2024-01-15T05:57:27;10.70;75.50
25906;DHT22;13713;52.552;13.204;2024-01-15T05:59:53;10.80;75.40
25906;DHT22;13713;52.552;13.204;2024-01-15T06:02:19;10.90;74.80
25906;DHT22;13713;52.552;13.204;2024-01-15T06:04:44;11.00;73.80
25906;DHT22;13713;52.552;13.204;2024-01-15T06:07:10;11.10;73.70
25906;DHT22;13713;52.552;13.204;2024-01-15T06:09:36;11.20;73.40
25906;DHT22;13713;52.552;13.204;2024-01-15T06:12:02;11.20;72.60
25906;DHT22;13713;52.552;13.204;2024-01-15T06:14:28;11.30;72.60
25906;DHT22;13713;52.552;13.204;2024-01-15T06:16:53;11.40;72.40
25906;DHT22;13713;52.552;13.204;2024-01-15T06:19:20;11.50;72.20
25906;DHT22;13713;52.552;13.204;2024-01-15T06:21:46;11.50;71.80
25906;DHT22;13713;52.552;13.204;2024-01-15T06:24:12;11.60;71.70
25906;DHT22;13713;52.552;13.204;2024-01-15T06:26:39;11.60;71.40
25906;DHT22;13713;52.552;13.204;2024-01-15T06:29:04;11.70;71.60
25906;DHT22;13713;52.552;13.204;2024-01-15T06:31:30;11.70;71.00
25906;DHT22;13713;52.552;13.204;2024-01-15T06:33:56;11.80;70.90
25906;DHT22;13713;52.552;13.204;2024-01-15T06:36:21;11.80;71.10
25906;DHT22;13713;52.552;13.204;2024-01-15T06:38:47;11.90;70.60
25906;DHT22;13713;52.552;13.204;2024-01-15T06:41:13;11.90;70.40
25906;DHT22;13713;52.552;13.204;2024-01-15T06:43:39;12.00;70.50
25906;DHT22;13713;52.552;13.204;2024-01-15T06:46:04;12.10;70.00
25906;DHT22;13713;52.552;13.204;2024-01-15T06:48:30;12.10;70.80
25906;DHT22;13713;52.552;13.204;2024-01-15T06:50:56;12.20;70.00
25906;DHT22;13713;52.552;13.204;2024-01-15T06:53:21;12.20;70.20
25906;DHT22;13713;52.552;13.204;2024-01-15T06:55:47;12.30;69.90
25906;DHT22;13713;52.552;13.204;2024-01-15T06:58:14;12.40;69.40
25906;DHT22;13713;52.552;13.204;2024-01-15T07:00:40;12.40;70.50
25906;DHT22;13713;52.552;13.204;2024-01-15T07:03:06;12.50;69.40
25906;DHT22;13713;52.552;13.204;2024-01-15T07:05:32;12.50;69.20
25906;DHT22;13713;52.552;13.204;2024-01-15T07:07:58;12.60;69.20
25906;DHT22;13713;52.552;13.204;2024-01-15T07:10:24;12.60;68.80
25906;DHT22;13713;52.552;13.204;2024-01-15T07:12:50;12.70;68.50
25906;DHT22;13713;52.552;13.204;2024-01-15T07:15:15;12.70;68.10
25906;DHT22;13713;52.552;13.204;2024-01-15T07:17:41;12.70;68.40
25906;DHT22;13713;52.552;13.204;2024-01-15T07:20:08;12.80;68.00
25906;DHT22;13713;52.552;13.204;2024-01-15T07:22:38;12.80;67.80
25906;DHT22;13713;52.552;13.204;2024-01-15T07:25:04;12.80;68.40
25906;DHT22;13713;52.552;13.204;2024-01-15T07:27:31;12.90;69.00
25906;DHT22;13713;52.552;13.204;2024-01-15T07:29:57;13.00;70.40
25906;DHT22;13713;52.552;13.204;2024-01-15T07:32:23;13.00;71.00
25906;DHT22;13713;52.552;13.204;2024-01-15T07:34:49;13.10;70.70
25906;DHT22;13713;52.552;13.204;2024-01-15T07:37:15;13.10;71.20
25906;DHT22;13713;52.552;13.204;2024-01-15T07:39:40;13.20;70.60
25906;DHT22;13713;52.552;13.204;2024-01-15T07:42:06;13.20;71.60
25906;DHT22;13713;52.552;13.204;2024-01-15T07:44:33;13.20;72.30
25906;DHT22;13713;52.552;13.204;2024-01-15T07:46:59;13.30;70.70
25906;DHT22;13713;52.552;13.204;2024-01-15T07:49:25;13.30;70.40
25906;DHT22;13713;52.552;13.204;2024-01-15T07:51:50;13.40;70.70
25906;DHT22;13713;52.552;13.204;2024-01-15T07:54:16;13.50;71.50
25906;DHT22;13713;52.552;13.204;2024-01-15T07:59:21;13.50;73.20
25906;DHT22;13713;52.552;13.204;2024-01-15T08:01:47;13.60;73.10
25906;DHT22;13713;52.552;13.204;2024-01-15T08:04:13;13.50;73.40
25906;DHT22;13713;52.552;13.204;2024-01-15T08:06:39;13.60;74.40
25906;DHT22;13713;52.552;13.204;2024-01-15T08:09:04;13.60;75.10
25906;DHT22;13713;52.552;13.204;2024-01-15T08:11:30;13.70;74.60
25906;DHT22;13713;52.552;13.204;2024-01-15T08:13:56;13.70;75.60
25906;DHT22;13713;52.552;13.204;2024-01-15T08:16:22;13.80;76.00
25906;DHT22;13713;52.552;13.204;2024-01-15T08:18:49;13.80;76.00
25906;DHT22;13713;52.552;13.204;2024-01-15T08:21:15;13.80;76.20
25906;DHT22;13713;52.552;13.204;2024-01-15T08:23:41;13.80;75.70
25906;DHT22;13713;52.552;13.204;2024-01-15T08:26:07;13.90;74.50
25906;DHT22;13713;52.552;13.204;2024-01-15T08:28:34;13.90;75.10
25906;DHT22;13713;52.552;13.204;2024-01-15T08:31:03;13.90;74.80
25906;DHT22;13713;52.552;13.204;2024-01-15T08:33:29;14.00;75.60
25906;DHT22;13713;52.552;13.204;2024-01-15T08:35:55;14.00;76.30
25906;DHT22;13713;52.552;13.204;2024-01-15T08:38:21;14.00;76.10
25906;DHT22;13713;52.552;13.204;2024-01-15T08:40:48;14.10;76.70
25906;DHT22;13713;52.552;13.204;2024-01-15T08:43:14;14.20;76.70
25906;DHT22;13713;52.552;13.204;2024-01-15T08:45:39;14.20;77.60
25906;DHT22;13713;52.552;13.204;2024-01-15T08:48:05;14.30;77.70
25906;DHT22;13713;52.552;13.204;2024-01-15T08:50:32;14.30;79.10
25906;DHT22;13713;52.552;13.204;2024-01-15T08:52:58;14.40;78.40
25906;DHT22;13713;52.552;13.204;2024-01-15T08:55:24;14.50;78.20
25906;DHT22;13713;52.552;13.204;2024-01-15T08:57:50;14.50;79.20
25906;DHT22;13713;52.552;13.204;2024-01-15T09:00:17;14.50;79.40
25906;DHT22;13713;52.552;13.204;2024-01-15T09:02:43;14.50;79.10
25906;DHT22;13713;52.552;13.204;2024-01-15T09:05:09;14.60;79.00
25906;DHT22;13713;52.552;13.204;2024-01-15T09:07:35;14.60;79.70
25906;DHT22;13713;52.552;13.204;2024-01-15T09:10:00;14.60;79.60
25906;DHT22;13713;52.552;13.204;2024-01-15T09:12:27;14.80;80.30
25906;DHT22;13713;52.552;13.204;2024-01-15T09:14:52;14.70;79.10
25906;DHT22;13713;52.552;13.204;2024-01-15T09:17:20;14.70;79.10
25906;DHT22;13713;52.552;13.204;2024-01-15T09:19:45;14.60;79.40
25906;DHT22;13713;52.552;13.204;2024-01-15T09:22:14;14.70;79.40
25906;DHT22;13713;52.552;13.204;2024-01-15T09:24:44;14.70;81.20
25906;DHT22;13713;52.552;13.204;2024-01-15T09:27:10;14.80;81.30
25906;DHT22;13713;52.552;13.204;2024-01-15T09:29:35;14.80;80.50
25906;DHT22;13713;52.552;13.204;2024-01-15T09:32:06;14.90;81.10
25906;DHT22;13713;52.552;13.204;2024-01-15T09:34:36;14.90;81.10
25906;DHT22;13713;52.552;13.204;2024-01-15T09:37:01;14.90;81.10
25906;DHT22;13713;52.552;13.204;2024-01-15T09:39:28;15.00;82.20
25906;DHT22;13713;52.552;13.204;2024-01-15T09:41:54;15.00;81.10
25906;DHT22;13713;52.552;13.204;2024-01-15T09:44:20;15.00;81.50
25906;DHT22;13713;52.552;13.204;2024-01-15T09:46:47;15.00;81.30
25906;DHT22;13713;52.552;13.204;2024-01-15T09:49:16;15.10;81.80
25906;DHT22;13713;52.552;13.204;2024-01-15T09:51:42;15.10;82.60
25906;DHT22;13713;52.552;13.204;2024-01-15T09:54:09;15.20;83.50
25906;DHT22;13713;52.552;13.204;2024-01-15T09:56:35;15.20;82.20
25906;DHT22;13713;52.552;13.204;2024-01-15T09:59:03;15.20;82.10
25906;DHT22;13713;52.552;13.204;2024-01-15T10:01:32;15.20;79.90
25906;DHT22;13713;52.552;13.204;2024-01-15T10:04:00;15.20;81.40
25906;DHT22;13713;52.552;13.204;2024-01-15T10:06:27;15.20;82.40
25906;DHT22;13713;52.552;13.204;2024-01-15T10:08:56;15.30;82.40
25906;DHT22;13713;52.552;13.204;2024-01-15T10:11:23;15.30;82.70
25906;DHT22;13713;52.552;13.204;2024-01-15T10:13:49;15.30;83.50
25906;DHT22;13713;52.552;13.204;2024-01-15T10:16:19;15.30;82.60
25906;DHT22;13713;52.552;13.204;2024-01-15T10:18:45;15.40;83.50
25906;DHT22;13713;52.552;13.204;2024-01-15T10:21:11;15.40;82.90
25906;DHT22;13713;52.552;13.204;2024-01-15T10:23:36;15.50;83.30
25906;DHT22;13713;52.552;13.204;2024-01-15T10:26:03;15.50;83.60
25906;DHT22;13713;52.552;13.204;2024-01-15T10:28:30;15.50;84.30
25906;DHT22;13713;52.552;13.204;2024-01-15T10:31:00;15.60;83.30
25906;DHT22;13713;52.552;13.204;2024-01-15T10:33:26;15.60;83.90
25906;DHT22;13713;52.552;13.204;2024-01-15T10:35:56;15.60;83.80
25906;DHT22;13713;52.552;13.204;2024-01-15T10:38:23;15.70;83.80
25906;DHT22;13713;52.552;13.204;2024-01-15T10:40:52;15.70;82.20
25906;DHT22;13713;52.552;13.204;2024-01-15T10:43:18;15.70;81.90
25906;DHT22;13713;52.552;13.204;2024-01-15T10:45:50;15.70;83.50
25906;DHT22;13713;52.552;13.204;2024-01-15T10:48:17;15.70;82.80
25906;DHT22;13713;52.552;13.204;2024-01-15T10:50:44;15.60;80.30
25906;DHT22;13713;52.552;13.204;2024-01-15T10:53:13;15.70;81.80
25906;DHT22;13713;52.552;13.204;2024-01-15T10:55:39;15.70;82.40
25906;DHT22;13713;52.552;13.204;2024-01-15T10:58:08;15.70;82.50
25906;DHT22;13713;52.552;13.204;2024-01-15T11:00:37;15.80;83.60
25906;DHT22;13713;52.552;13.204;2024-01-15T11:03:06;15.90;82.80
25906;DHT22;13713;52.552;13.204;2024-01-15T11:05:42;15.80;82.60
25906;DHT22;13713;52.552;13.204;2024-01-15T11:08:09;15.80;82.50
25906;DHT22;13713;52.552;13.204;2024-01-15T11:10:45;15.90;82.80
25906;DHT22;13713;52.552;13.204;2024-01-15T11:16:04;16.00;85.50
25906;DHT22;13713;52.552;13.204;2024-01-15T11:19:01;15.90;82.60
25906;DHT22;13713;52.552;13.204;2024-01-15T11:21:27;16.00;84.00
25906;DHT22;13713;52.552;13.204;2024-01-15T11:23:58;16.00;83.60
25906;DHT22;13713;52.552;13.204;2024-01-15T11:26:37;16.00;83.60
25906;DHT22;13713;52.552;13.204;2024-01-15T11:29:10;16.00;83.10
25906;DHT22;13713;52.552;13.204;2024-01-15T11:32:01;16.00;83.30
25906;DHT22;13713;52.552;13.204;2024-01-15T11:34:50;16.10;83.10
25906;DHT22;13713;52.552;13.204;2024-01-15T11:37:17;16.00;83.90
25906;DHT22;13713;52.552;13.204;2024-01-15T11:39:43;16.10;83.90
25906;DHT22;13713;52.552;13.204;2024-01-15T11:42:10;16.10;83.80
25906;DHT22;13713;52.552;13.204;2024-01-15T11:44:40;16.20;84.10
25906;DHT22;13713;52.552;13.204;2024-01-15T11:47:07;16.20;83.00
25906;DHT22;13713;52.552;13.204;2024-01-15T11:52:05;16.20;83.20
25906;DHT22;13713;52.552;13.204;2024-01-15T11:54:33;16.30;83.60
25906;DHT22;13713;52.552;13.204;2024-01-15T11:57:04;16.30;84.60
25906;DHT22;13713;52.552;13.204;2024-01-15T11:59:33;16.30;84.60
25906;DHT22;13713;52.552;13.204;2024-01-15T12:01:59;16.30;83.50
25906;DHT22;13713;52.552;13.204;2024-01-15T12:04:24;16.40;83.40
25906;DHT22;13713;52.552;13.204;2024-01-15T12:06:50;16.40;85.20
25906;DHT22;13713;52.552;13.204;2024-01-15T12:09:19;16.40;85.30
25906;DHT22;13713;52.552;13.204;2024-01-15T12:11:54;16.40;84.40
25906;DHT22;13713;52.552;13.204;2024-01-15T12:14:21;16.40;86.10
25906;DHT22;13713;52.552;13.204;2024-01-15T12:16:47;16.50;85.80
25906;DHT22;13713;52.552;13.204;2024-01-15T12:19:15;16.50;85.80
25906;DHT22;13713;52.552;13.204;2024-01-15T12:21:40;16.50;85.70
25906;DHT22;13713;52.552;13.204;2024-01-15T12:24:09;16.50;86.60
25906;DHT22;13713;52.552;13.204;2024-01-15T12:26:35;16.50;86.80
25906;DHT22;13713;52.552;13.204;2024-01-15T12:29:06;16.50;86.40
25906;DHT22;13713;52.552;13.204;2024-01-15T12:31:32;16.50;85.20
25906;DHT22;13713;52.552;13.204;2024-01-15T12:33:58;16.50;85.20
25906;DHT22;13713;52.552;13.204;2024-01-15T12:36:23;16.50;85.90
25906;DHT22;13713;52.552;13.204;2024-01-15T12:38:49;16.60;85.60
25906;DHT22;13713;52.552;13.204;2024-01-15T12:41:15;16.60;85.10
25906;DHT22;13713;52.552;13.204;2024-01-15T12:43:41;16.60;84.40
25906;DHT22;13713;52.552;13.204;2024-01-15T12:46:07;16.60;83.70
25906;DHT22;13713;52.552;13.204;2024-01-15T12:48:32;16.70;85.10
25906;DHT22;13713;52.552;13.204;2024-01-15T12:50:58;16.70;84.50
25906;DHT22;13713;52.552;13.204;2024-01-15T12:53:24;16.70;84.10
25906;DHT22;13713;52.552;13.204;2024-01-15T12:55:49;16.60;84.50
25906;DHT22;13713;52.552;13.204;2024-01-15T12:58:15;16.70;84.10
25906;DHT22;13713;52.552;13.204;2024-01-15T13:00:40;16.80;83.90
25906;DHT22;13713;52.552;13.204;2024-01-15T13:03:06;16.80;84.50
25906;DHT22;13713;52.552;13.204;2024-01-15T13:05:32;16.80;84.20
25906;DHT22;13713;52.552;13.204;2024-01-15T13:07:59;16.80;84.20
25906;DHT22;13713;52.552;13.204;2024-01-15T13:10:25;16.80;84.30
25906;DHT22;13713;52.552;13.204;2024-01-15T13:12:51;16.80;84.50
25906;DHT22;13713;52.552;13.204;2024-01-15T13:15:16;16.80;84.20
25906;DHT22;13713;52.552;13.204;2024-01-15T13:17:42;16.90;83.70
25906;DHT22;13713;52.552;13.204;2024-01-15T13:20:08;16.90;83.20
25906;DHT22;13713;52.552;13.204;2024-01-15T13:22:34;16.90;83.90
25906;DHT22;13713;52.552;13.204;2024-01-15T13:25:00;16.90;82.90
25906;DHT22;13713;52.552;13.204;2024-01-15T13:27:26;16.90;83.20
25906;DHT22;13713;52.552;13.204;2024-01-15T13:29:52;16.90;84.60
25906;DHT22;13713;52.552;13.204;2024-01-15T13:32:22;16.90;84.00
25906;DHT22;13713;52.552;13.204;2024-01-15T13:34:49;16.90;84.30
25906;DHT22;13713;52.552;13.204;2024-01-15T13:37:15;17.00;84.20
25906;DHT22;13713;52.552;13.204;2024-01-15T13:39:40;17.00;83.70
25906;DHT22;13713;52.552;13.204;2024-01-15T13:42:06;17.00;83.60
25906;DHT22;13713;52.552;13.204;2024-01-15T13:44:31;17.00;83.10
25906;DHT22;13713;52.552;13.204;2024-01-15T13:46:57;17.10;82.80
25906;DHT22;13713;52.552;13.204;2024-01-15T13:49:24;17.00;83.20
25906;DHT22;13713;52.552;13.204;2024-01-15T13:51:49;17.00;82.80
25906;DHT22;13713;52.552;13.204;2024-01-15T13:54:15;17.10;83.70
25906;DHT22;13713;52.552;13.204;2024-01-15T13:56:41;17.10;84.50
25906;DHT22;13713;52.552;13.204;2024-01-15T13:59:07;17.10;83.30
25906;DHT22;13713;52.552;13.204;2024-01-15T14:01:33;17.10;83.80
25906;DHT22;13713;52.552;13.204;2024-01-15T14:03:59;17.10;84.40
25906;DHT22;13713;52.552;13.204;2024-01-15T14:06:24;17.10;85.00
25906;DHT22;13713;52.552;13.204;2024-01-15T14:08:50;17.10;85.00
25906;DHT22;13713;52.552;13.204;2024-01-15T14:11:16;17.10;85.30
25906;DHT22;13713;52.552;13.204;2024-01-15T14:13:41;17.10;85.50
25906;DHT22;13713;52.552;13.204;2024-01-15T14:16:07;17.20;85.80
25906;DHT22;13713;52.552;13.204;2024-01-15T14:18:33;17.20;86.90
25906;DHT22;13713;52.552;13.204;2024-01-15T14:20:58;17.20;86.20
25906;DHT22;13713;52.552;13.204;2024-01-15T14:23:24;17.20;85.80
25906;DHT22;13713;52.552;13.204;2024-01-15T14:25:49;17.20;87.20
25906;DHT22;13713;52.552;13.204;2024-01-15T14:28:15;17.30;86.60
25906;DHT22;13713;52.552;13.204;2024-01-15T14:30:41;17.20;86.70
25906;DHT22;13713;52.552;13.204;2024-01-15T14:33:06;17.20;86.20
25906;DHT22;13713;52.552;13.204;2024-01-15T14:35:32;17.30;85.60
25906;DHT22;13713;52.552;13.204;2024-01-15T14:37:58;17.30;85.70
25906;DHT22;13713;52.552;13.204;2024-01-15T14:40:26;17.30;85.40
25906;DHT22;13713;52.552;13.204;2024-01-15T14:42:52;17.30;86.50
25906;DHT22;13713;52.552;13.204;2024-01-15T14:45:18;17.30;86.60
25906;DHT22;13713;52.552;13.204;2024-01-15T14:47:44;17.30;86.70
25906;DHT22;13713;52.552;13.204;2024-01-15T14:50:09;17.30;86.70
25906;DHT22;13713;52.552;13.204;2024-01-15T14:52:36;17.40;86.60
25906;DHT22;13713;52.552;13.204;2024-01-15T14:55:02;17.40;86.40
25906;DHT22;13713;52.552;13.204;2024-01-15T14:57:27;17.40;86.60
25906;DHT22;13713;52.552;13.204;2024-01-15T14:59:53;17.40;85.10
25906;DHT22;13713;52.552;13.204;2024-01-15T15:02:19;17.40;86.20
25906;DHT22;13713;52.552;13.204;2024-01-15T15:04:45;17.50;86.90
25906;DHT22;13713;52.552;13.204;2024-01-15T15:07:11;17.50;85.70
25906;DHT22;13713;52.552;13.204;2024-01-15T15:09:36;17.40;81.00
25906;DHT22;13713;52.552;13.204;2024-01-15T15:12:04;17.40;83.00
25906;DHT22;13713;52.552;13.204;2024-01-15T15:14:31;17.20;82.20
25906;DHT22;13713;52.552;13.204;2024-01-15T15:16:57;17.20;82.20
25906;DHT22;13713;52.552;13.204;2024-01-15T15:19:23;17.10;81.60
25906;DHT22;13713;52.552;13.204;2024-01-15T15:21:49;17.00;81.70
25906;DHT22;13713;52.552;13.204;2024-01-15T15:24:14;17.00;81.90